sensor_id;sensor_type;location;lat;lon;timestamp;P1;durP1;ratioP1;P2;durP2;ratioP2
4089;SDS011;2059;48.538;12.146;2022-12-18T00:03:45;42.37;;;21.20;;
4089;SDS011;2059;48.538;12.146;2022-12-18T00:08:49;38.80;;;19.47;;
4089;SDS011;2059;48.538;12.146;2022-12-18T00:13:51;41.70;;;21.57;;
4089;SDS011;2059;48.538;12.146;2022-12-18T00:18:55;35.90;;;19.00;;
4089;SDS011;2059;48.538;12.146;2022-12-18T00:23:59;42.53;;;20.67;;
4089;SDS011;2059;48.538;12.146;2022-12-18T00:29:03;35.70;;;19.63;;
4089;SDS011;2059;48.538;12.146;2022-12-18T00:34:06;35.97;;;19.00;;
4089;SDS011;2059;48.538;12.146;2022-12-18T00:39:11;36.23;;;19.70;;
4089;SDS011;2059;48.538;12.146;2022-12-18T00:44:15;33.13;;;19.07;;
4089;SDS011;2059;48.538;12.146;2022-12-18T00:49:18;38.80;;;19.90;;
4089;SDS011;2059;48.538;12.146;2022-12-18T00:54:22;38.60;;;19.60;;
4089;SDS011;2059;48.538;12.146;2022-12-18T00:59:24;35.53;;;19.10;;
4089;SDS011;2059;48.538;12.146;2022-12-18T01:04:26;40.33;;;21.27;;
4089;SDS011;2059;48.538;12.146;2022-12-18T01:09:29;42.13;;;20.97;;
4089;SDS011;2059;48.538;12.146;2022-12-18T01:14:31;37.10;;;20.10;;
4089;SDS011;2059;48.538;12.146;2022-12-18T01:19:33;34.97;;;19.33;;
4089;SDS011;2059;48.538;12.146;2022-12-18T01:24:36;38.37;;;20.60;;
4089;SDS011;2059;48.538;12.146;2022-12-18T01:29:38;35.13;;;19.83;;
4089;SDS011;2059;48.538;12.146;2022-12-18T01:34:40;38.87;;;22.53;;
4089;SDS011;2059;48.538;12.146;2022-12-18T01:39:43;39.47;;;21.50;;
4089;SDS011;2059;48.538;12.146;2022-12-18T01:50:08;42.37;;;21.57;;
4089;SDS011;2059;48.538;12.146;2022-12-18T01:55:13;37.97;;;21.90;;
4089;SDS011;2059;48.538;12.146;2022-12-18T02:00:18;41.63;;;20.97;;
4089;SDS011;2059;48.538;12.146;2022-12-18T02:05:23;37.90;;;19.83;;
4089;SDS011;2059;48.538;12.146;2022-12-18T02:10:35;42.73;;;21.50;;
4089;SDS011;2059;48.538;12.146;2022-12-18T02:15:44;41.43;;;21.90;;
4089;SDS011;2059;48.538;12.146;2022-12-18T02:20:54;38.30;;;19.37;;
4089;SDS011;2059;48.538;12.146;2022-12-18T02:26:04;35.80;;;18.17;;
4089;SDS011;2059;48.538;12.146;2022-12-18T02:31:13;35.50;;;19.13;;
4089;SDS011;2059;48.538;12.146;2022-12-18T02:36:18;40.73;;;17.77;;
4089;SDS011;2059;48.538;12.146;2022-12-18T02:41:22;35.23;;;18.17;;
4089;SDS011;2059;48.538;12.146;2022-12-18T02:46:25;35.90;;;18.47;;
4089;SDS011;2059;48.538;12.146;2022-12-18T02:51:33;30.83;;;17.90;;
4089;SDS011;2059;48.538;12.146;2022-12-18T02:56:43;32.97;;;17.90;;
4089;SDS011;2059;48.538;12.146;2022-12-18T03:01:52;29.20;;;16.23;;
4089;SDS011;2059;48.538;12.146;2022-12-18T03:07:01;29.33;;;16.80;;
4089;SDS011;2059;48.538;12.146;2022-12-18T03:12:08;30.43;;;17.57;;
4089;SDS011;2059;48.538;12.146;2022-12-18T03:17:25;27.00;;;15.63;;
4089;SDS011;2059;48.538;12.146;2022-12-18T03:22:29;31.87;;;17.50;;
4089;SDS011;2059;48.538;12.146;2022-12-18T03:27:35;34.07;;;18.43;;
4089;SDS011;2059;48.538;12.146;2022-12-18T03:32:40;33.03;;;18.17;;
4089;SDS011;2059;48.538;12.146;2022-12-18T03:37:45;32.07;;;16.50;;
4089;SDS011;2059;48.538;12.146;2022-12-18T03:42:49;34.47;;;18.83;;
4089;SDS011;2059;48.538;12.146;2022-12-18T03:47:58;35.30;;;18.63;;
4089;SDS011;2059;48.538;12.146;2022-12-18T03:53:04;32.57;;;18.60;;
4089;SDS011;2059;48.538;12.146;2022-12-18T03:58:17;30.93;;;18.07;;
4089;SDS011;2059;48.538;12.146;2022-12-18T04:03:21;35.60;;;19.20;;
4089;SDS011;2059;48.538;12.146;2022-12-18T04:08:24;36.67;;;19.47;;
4089;SDS011;2059;48.538;12.146;2022-12-18T04:13:29;37.47;;;21.10;;
4089;SDS011;2059;48.538;12.146;2022-12-18T04:18:33;35.83;;;18.90;;
4089;SDS011;2059;48.538;12.146;2022-12-18T04:23:35;36.13;;;18.93;;
4089;SDS011;2059;48.538;12.146;2022-12-18T04:28:38;32.53;;;17.20;;
4089;SDS011;2059;48.538;12.146;2022-12-18T04:33:40;31.20;;;16.63;;
4089;SDS011;2059;48.538;12.146;2022-12-18T04:38:42;30.73;;;16.70;;
4089;SDS011;2059;48.538;12.146;2022-12-18T04:43:45;31.53;;;17.97;;
4089;SDS011;2059;48.538;12.146;2022-12-18T04:48:47;30.63;;;17.43;;
4089;SDS011;2059;48.538;12.146;2022-12-18T04:53:49;30.87;;;19.10;;
4089;SDS011;2059;48.538;12.146;2022-12-18T04:58:52;29.40;;;17.30;;
4089;SDS011;2059;48.538;12.146;2022-12-18T05:03:54;30.43;;;17.03;;
4089;SDS011;2059;48.538;12.146;2022-12-18T05:08:56;33.87;;;18.87;;
4089;SDS011;2059;48.538;12.146;2022-12-18T05:13:59;31.27;;;18.07;;
4089;SDS011;2059;48.538;12.146;2022-12-18T05:19:01;32.63;;;18.17;;
4089;SDS011;2059;48.538;12.146;2022-12-18T05:24:02;29.77;;;16.83;;
4089;SDS011;2059;48.538;12.146;2022-12-18T05:29:06;29.77;;;17.23;;
4089;SDS011;2059;48.538;12.146;2022-12-18T05:34:08;30.80;;;17.43;;
4089;SDS011;2059;48.538;12.146;2022-12-18T05:39:10;32.70;;;17.70;;
4089;SDS011;2059;48.538;12.146;2022-12-18T05:44:13;27.83;;;16.43;;
4089;SDS011;2059;48.538;12.146;2022-12-18T05:49:15;25.67;;;15.30;;
4089;SDS011;2059;48.538;12.146;2022-12-18T05:54:16;28.60;;;16.57;;
4089;SDS011;2059;48.538;12.146;2022-12-18T05:59:20;31.10;;;18.10;;
4089;SDS011;2059;48.538;12.146;2022-12-18T06:04:22;28.20;;;16.53;;
4089;SDS011;2059;48.538;12.146;2022-12-18T06:09:23;33.37;;;18.47;;
4089;SDS011;2059;48.538;12.146;2022-12-18T06:14:27;30.70;;;17.57;;
4089;SDS011;2059;48.538;12.146;2022-12-18T06:19:28;32.00;;;18.07;;
4089;SDS011;2059;48.538;12.146;2022-12-18T06:24:30;33.20;;;18.87;;
4089;SDS011;2059;48.538;12.146;2022-12-18T06:29:34;34.37;;;18.03;;
4089;SDS011;2059;48.538;12.146;2022-12-18T06:34:36;32.77;;;18.00;;
4089;SDS011;2059;48.538;12.146;2022-12-18T06:39:39;30.30;;;17.70;;
4089;SDS011;2059;48.538;12.146;2022-12-18T06:44:42;32.73;;;17.83;;
4089;SDS011;2059;48.538;12.146;2022-12-18T06:49:44;34.37;;;18.67;;
4089;SDS011;2059;48.538;12.146;2022-12-18T06:54:45;33.33;;;18.07;;
4089;SDS011;2059;48.538;12.146;2022-12-18T06:59:49;29.70;;;18.30;;
4089;SDS011;2059;48.538;12.146;2022-12-18T07:04:50;31.13;;;17.53;;
4089;SDS011;2059;48.538;12.146;2022-12-18T07:09:52;29.93;;;17.63;;
4089;SDS011;2059;48.538;12.146;2022-12-18T07:14:55;35.33;;;17.97;;
4089;SDS011;2059;48.538;12.146;2022-12-18T07:19:57;30.63;;;17.07;;
4089;SDS011;2059;48.538;12.146;2022-12-18T07:24:59;36.60;;;19.37;;
4089;SDS011;2059;48.538;12.146;2022-12-18T07:30:02;42.23;;;20.20;;
4089;SDS011;2059;48.538;12.146;2022-12-18T07:35:05;38.10;;;19.27;;
4089;SDS011;2059;48.538;12.146;2022-12-18T07:40:08;33.60;;;19.20;;
4089;SDS011;2059;48.538;12.146;2022-12-18T07:45:12;35.63;;;19.10;;
4089;SDS011;2059;48.538;12.146;2022-12-18T07:50:14;33.70;;;18.73;;
4089;SDS011;2059;48.538;12.146;2022-12-18T07:55:16;32.37;;;19.17;;
4089;SDS011;2059;48.538;12.146;2022-12-18T08:00:19;31.63;;;17.33;;
4089;SDS011;2059;48.538;12.146;2022-12-18T08:05:21;29.40;;;17.23;;
4089;SDS011;2059;48.538;12.146;2022-12-18T08:10:23;30.10;;;17.10;;
4089;SDS011;2059;48.538;12.146;2022-12-18T08:15:26;29.47;;;16.77;;
4089;SDS011;2059;48.538;12.146;2022-12-18T08:20:28;30.13;;;16.17;;
4089;SDS011;2059;48.538;12.146;2022-12-18T08:25:30;30.60;;;17.80;;
4089;SDS011;2059;48.538;12.146;2022-12-18T08:30:33;33.43;;;17.47;;
4089;SDS011;2059;48.538;12.146;2022-12-18T08:35:36;28.03;;;17.47;;
4089;SDS011;2059;48.538;12.146;2022-12-18T08:40:38;30.97;;;18.00;;
4089;SDS011;2059;48.538;12.146;2022-12-18T08:45:41;33.60;;;18.27;;
4089;SDS011;2059;48.538;12.146;2022-12-18T08:50:43;33.57;;;18.73;;
4089;SDS011;2059;48.538;12.146;2022-12-18T08:55:45;31.17;;;18.30;;
4089;SDS011;2059;48.538;12.146;2022-12-18T09:00:48;33.03;;;18.20;;
4089;SDS011;2059;48.538;12.146;2022-12-18T09:05:50;34.73;;;19.40;;
4089;SDS011;2059;48.538;12.146;2022-12-18T09:10:51;29.53;;;20.03;;
4089;SDS011;2059;48.538;12.146;2022-12-18T09:15:55;33.77;;;19.73;;
4089;SDS011;2059;48.538;12.146;2022-12-18T09:20:57;29.23;;;19.00;;
4089;SDS011;2059;48.538;12.146;2022-12-18T09:25:59;32.80;;;19.43;;
4089;SDS011;2059;48.538;12.146;2022-12-18T09:31:04;33.00;;;19.43;;
4089;SDS011;2059;48.538;12.146;2022-12-18T09:36:09;26.33;;;17.10;;
4089;SDS011;2059;48.538;12.146;2022-12-18T09:41:17;28.87;;;17.47;;
4089;SDS011;2059;48.538;12.146;2022-12-18T09:46:38;24.93;;;14.87;;
4089;SDS011;2059;48.538;12.146;2022-12-18T09:51:45;27.77;;;15.60;;
4089;SDS011;2059;48.538;12.146;2022-12-18T09:56:51;29.57;;;17.00;;
4089;SDS011;2059;48.538;12.146;2022-12-18T10:01:54;23.83;;;15.30;;
4089;SDS011;2059;48.538;12.146;2022-12-18T10:06:58;24.90;;;15.97;;
4089;SDS011;2059;48.538;12.146;2022-12-18T10:12:06;21.63;;;14.20;;
4089;SDS011;2059;48.538;12.146;2022-12-18T10:17:17;21.90;;;14.83;;
4089;SDS011;2059;48.538;12.146;2022-12-18T10:22:31;22.47;;;14.77;;
4089;SDS011;2059;48.538;12.146;2022-12-18T10:27:43;25.93;;;16.50;;
4089;SDS011;2059;48.538;12.146;2022-12-18T10:32:46;26.03;;;16.90;;
4089;SDS011;2059;48.538;12.146;2022-12-18T10:43:22;25.50;;;15.63;;
4089;SDS011;2059;48.538;12.146;2022-12-18T10:48:28;26.97;;;15.90;;
4089;SDS011;2059;48.538;12.146;2022-12-18T10:53:33;25.30;;;15.70;;
4089;SDS011;2059;48.538;12.146;2022-12-18T10:58:36;25.90;;;16.60;;
4089;SDS011;2059;48.538;12.146;2022-12-18T11:03:41;26.20;;;15.90;;
4089;SDS011;2059;48.538;12.146;2022-12-18T11:08:56;21.80;;;14.67;;
4089;SDS011;2059;48.538;12.146;2022-12-18T11:14:02;27.00;;;15.77;;
4089;SDS011;2059;48.538;12.146;2022-12-18T11:19:17;24.50;;;17.10;;
4089;SDS011;2059;48.538;12.146;2022-12-18T11:24:26;23.73;;;14.90;;
4089;SDS011;2059;48.538;12.146;2022-12-18T11:29:34;22.03;;;13.83;;
4089;SDS011;2059;48.538;12.146;2022-12-18T11:34:38;21.53;;;14.07;;
4089;SDS011;2059;48.538;12.146;2022-12-18T11:39:44;21.83;;;15.07;;
4089;SDS011;2059;48.538;12.146;2022-12-18T11:44:51;22.73;;;15.57;;
4089;SDS011;2059;48.538;12.146;2022-12-18T11:55:01;21.97;;;14.27;;
4089;SDS011;2059;48.538;12.146;2022-12-18T12:00:12;21.53;;;15.00;;
4089;SDS011;2059;48.538;12.146;2022-12-18T12:05:21;23.40;;;14.40;;
4089;SDS011;2059;48.538;12.146;2022-12-18T12:10:39;23.17;;;14.90;;
4089;SDS011;2059;48.538;12.146;2022-12-18T12:15:53;23.60;;;15.00;;
4089;SDS011;2059;48.538;12.146;2022-12-18T12:21:05;20.97;;;14.70;;
4089;SDS011;2059;48.538;12.146;2022-12-18T12:26:17;22.93;;;14.70;;
4089;SDS011;2059;48.538;12.146;2022-12-18T12:31:25;20.73;;;14.73;;
4089;SDS011;2059;48.538;12.146;2022-12-18T12:36:54;22.30;;;14.53;;
4089;SDS011;2059;48.538;12.146;2022-12-18T12:42:10;23.13;;;15.30;;
4089;SDS011;2059;48.538;12.146;2022-12-18T12:47:35;25.07;;;16.50;;
4089;SDS011;2059;48.538;12.146;2022-12-18T12:52:43;23.17;;;15.90;;
4089;SDS011;2059;48.538;12.146;2022-12-18T12:57:51;23.87;;;15.53;;
4089;SDS011;2059;48.538;12.146;2022-12-18T13:02:59;22.80;;;16.10;;
4089;SDS011;2059;48.538;12.146;2022-12-18T13:08:08;23.67;;;15.60;;
4089;SDS011;2059;48.538;12.146;2022-12-18T13:13:14;24.60;;;15.53;;
4089;SDS011;2059;48.538;12.146;2022-12-18T13:18:18;23.87;;;16.17;;
4089;SDS011;2059;48.538;12.146;2022-12-18T13:23:26;24.30;;;15.70;;
4089;SDS011;2059;48.538;12.146;2022-12-18T13:28:52;22.80;;;15.33;;
4089;SDS011;2059;48.538;12.146;2022-12-18T13:33:57;25.77;;;15.47;;
4089;SDS011;2059;48.538;12.146;2022-12-18T13:39:23;23.53;;;15.10;;
4089;SDS011;2059;48.538;12.146;2022-12-18T13:44:30;23.63;;;15.20;;
4089;SDS011;2059;48.538;12.146;2022-12-18T13:49:36;27.90;;;17.00;;
4089;SDS011;2059;48.538;12.146;2022-12-18T13:54:40;24.63;;;16.30;;
4089;SDS011;2059;48.538;12.146;2022-12-18T13:59:44;26.57;;;15.80;;
4089;SDS011;2059;48.538;12.146;2022-12-18T14:04:46;24.33;;;15.60;;
4089;SDS011;2059;48.538;12.146;2022-12-18T14:09:49;22.13;;;15.87;;
4089;SDS011;2059;48.538;12.146;2022-12-18T14:14:54;25.40;;;15.70;;
4089;SDS011;2059;48.538;12.146;2022-12-18T14:19:57;23.57;;;16.40;;
4089;SDS011;2059;48.538;12.146;2022-12-18T14:25:10;21.70;;;15.13;;
4089;SDS011;2059;48.538;12.146;2022-12-18T14:30:27;24.33;;;16.40;;
4089;SDS011;2059;48.538;12.146;2022-12-18T14:35:31;24.90;;;16.20;;
4089;SDS011;2059;48.538;12.146;2022-12-18T14:40:33;25.23;;;16.13;;
4089;SDS011;2059;48.538;12.146;2022-12-18T14:45:37;27.70;;;16.57;;
4089;SDS011;2059;48.538;12.146;2022-12-18T14:50:41;26.90;;;15.93;;
4089;SDS011;2059;48.538;12.146;2022-12-18T14:55:44;24.83;;;15.87;;
4089;SDS011;2059;48.538;12.146;2022-12-18T15:00:49;26.30;;;16.30;;
4089;SDS011;2059;48.538;12.146;2022-12-18T15:05:51;26.23;;;16.60;;
4089;SDS011;2059;48.538;12.146;2022-12-18T15:10:53;31.63;;;16.83;;
4089;SDS011;2059;48.538;12.146;2022-12-18T15:15:57;26.07;;;17.80;;
4089;SDS011;2059;48.538;12.146;2022-12-18T15:21:07;25.97;;;16.60;;
4089;SDS011;2059;48.538;12.146;2022-12-18T15:26:11;28.47;;;16.67;;
4089;SDS011;2059;48.538;12.146;2022-12-18T15:31:29;29.40;;;18.63;;
4089;SDS011;2059;48.538;12.146;2022-12-18T15:36:32;29.63;;;17.37;;
4089;SDS011;2059;48.538;12.146;2022-12-18T15:41:36;28.53;;;18.07;;
4089;SDS011;2059;48.538;12.146;2022-12-18T15:46:39;32.10;;;18.03;;
4089;SDS011;2059;48.538;12.146;2022-12-18T15:51:41;34.17;;;19.40;;
4089;SDS011;2059;48.538;12.146;2022-12-18T15:56:43;31.93;;;20.43;;
4089;SDS011;2059;48.538;12.146;2022-12-18T16:02:08;35.97;;;21.10;;
4089;SDS011;2059;48.538;12.146;2022-12-18T16:07:17;30.87;;;20.00;;
4089;SDS011;2059;48.538;12.146;2022-12-18T16:12:20;31.50;;;20.97;;
4089;SDS011;2059;48.538;12.146;2022-12-18T17:04:37;36.97;;;22.43;;
4089;SDS011;2059;48.538;12.146;2022-12-18T17:09:39;44.77;;;26.40;;
4089;SDS011;2059;48.538;12.146;2022-12-18T17:14:42;39.17;;;23.60;;
4089;SDS011;2059;48.538;12.146;2022-12-18T17:19:46;39.00;;;21.77;;
4089;SDS011;2059;48.538;12.146;2022-12-18T17:24:48;34.47;;;20.83;;
4089;SDS011;2059;48.538;12.146;2022-12-18T17:29:51;35.57;;;22.70;;
4089;SDS011;2059;48.538;12.146;2022-12-18T17:34:54;44.23;;;23.70;;
4089;SDS011;2059;48.538;12.146;2022-12-18T17:39:55;42.10;;;24.33;;
4089;SDS011;2059;48.538;12.146;2022-12-18T17:44:57;45.73;;;26.23;;
4089;SDS011;2059;48.538;12.146;2022-12-18T17:50:00;40.53;;;23.13;;
4089;SDS011;2059;48.538;12.146;2022-12-18T17:55:02;39.20;;;23.03;;
4089;SDS011;2059;48.538;12.146;2022-12-18T18:00:06;43.87;;;23.50;;
4089;SDS011;2059;48.538;12.146;2022-12-18T18:05:11;44.40;;;23.67;;
4089;SDS011;2059;48.538;12.146;2022-12-18T18:10:12;45.03;;;24.93;;
4089;SDS011;2059;48.538;12.146;2022-12-18T18:15:14;45.00;;;26.13;;
4089;SDS011;2059;48.538;12.146;2022-12-18T18:20:18;50.80;;;29.97;;
4089;SDS011;2059;48.538;12.146;2022-12-18T18:25:20;46.00;;;27.70;;
4089;SDS011;2059;48.538;12.146;2022-12-18T18:30:22;46.97;;;26.00;;
4089;SDS011;2059;48.538;12.146;2022-12-18T18:35:25;43.17;;;25.13;;
4089;SDS011;2059;48.538;12.146;2022-12-18T18:40:26;39.30;;;25.13;;
4089;SDS011;2059;48.538;12.146;2022-12-18T18:45:28;52.23;;;30.90;;
4089;SDS011;2059;48.538;12.146;2022-12-18T18:50:31;77.87;;;43.57;;
4089;SDS011;2059;48.538;12.146;2022-12-18T18:55:34;53.20;;;32.10;;
4089;SDS011;2059;48.538;12.146;2022-12-18T19:00:37;50.20;;;27.03;;
4089;SDS011;2059;48.538;12.146;2022-12-18T19:05:40;38.90;;;22.77;;
4089;SDS011;2059;48.538;12.146;2022-12-18T19:10:42;37.90;;;23.87;;
4089;SDS011;2059;48.538;12.146;2022-12-18T19:15:44;38.00;;;23.83;;
4089;SDS011;2059;48.538;12.146;2022-12-18T19:20:54;38.80;;;25.97;;
4089;SDS011;2059;48.538;12.146;2022-12-18T19:25:58;37.83;;;21.60;;
4089;SDS011;2059;48.538;12.146;2022-12-18T19:31:01;35.40;;;21.80;;
4089;SDS011;2059;48.538;12.146;2022-12-18T19:36:10;35.50;;;21.90;;
4089;SDS011;2059;48.538;12.146;2022-12-18T19:41:14;38.00;;;22.27;;
4089;SDS011;2059;48.538;12.146;2022-12-18T19:46:17;33.63;;;21.57;;
4089;SDS011;2059;48.538;12.146;2022-12-18T19:51:24;33.77;;;21.20;;
4089;SDS011;2059;48.538;12.146;2022-12-18T19:56:27;35.60;;;21.60;;
4089;SDS011;2059;48.538;12.146;2022-12-18T20:01:31;31.47;;;20.07;;
4089;SDS011;2059;48.538;12.146;2022-12-18T20:06:35;33.47;;;20.50;;
4089;SDS011;2059;48.538;12.146;2022-12-18T20:11:46;30.30;;;18.70;;
4089;SDS011;2059;48.538;12.146;2022-12-18T20:16:48;35.50;;;20.50;;
4089;SDS011;2059;48.538;12.146;2022-12-18T20:21:51;28.97;;;19.20;;
4089;SDS011;2059;48.538;12.146;2022-12-18T20:26:53;33.40;;;20.17;;
4089;SDS011;2059;48.538;12.146;2022-12-18T20:31:55;34.17;;;20.70;;
4089;SDS011;2059;48.538;12.146;2022-12-18T20:36:59;30.13;;;18.73;;
4089;SDS011;2059;48.538;12.146;2022-12-18T20:42:00;32.50;;;19.60;;
4089;SDS011;2059;48.538;12.146;2022-12-18T20:47:02;31.23;;;19.77;;
4089;SDS011;2059;48.538;12.146;2022-12-18T20:52:05;39.20;;;20.57;;
4089;SDS011;2059;48.538;12.146;2022-12-18T20:57:08;40.20;;;22.27;;
4089;SDS011;2059;48.538;12.146;2022-12-18T21:02:11;32.63;;;19.53;;
4089;SDS011;2059;48.538;12.146;2022-12-18T21:07:14;37.70;;;21.27;;
4089;SDS011;2059;48.538;12.146;2022-12-18T21:12:16;33.33;;;19.57;;
4089;SDS011;2059;48.538;12.146;2022-12-18T21:17:46;31.00;;;19.50;;
4089;SDS011;2059;48.538;12.146;2022-12-18T21:22:50;34.97;;;20.13;;
4089;SDS011;2059;48.538;12.146;2022-12-18T21:27:51;34.83;;;20.83;;
4089;SDS011;2059;48.538;12.146;2022-12-18T21:32:53;31.43;;;19.60;;
4089;SDS011;2059;48.538;12.146;2022-12-18T21:37:57;35.20;;;20.10;;
4089;SDS011;2059;48.538;12.146;2022-12-18T21:42:58;32.40;;;19.20;;
4089;SDS011;2059;48.538;12.146;2022-12-18T21:48:18;29.97;;;18.90;;
4089;SDS011;2059;48.538;12.146;2022-12-18T21:53:21;32.90;;;20.20;;
4089;SDS011;2059;48.538;12.146;2022-12-18T21:58:22;30.50;;;20.13;;
4089;SDS011;2059;48.538;12.146;2022-12-18T22:03:24;34.60;;;20.30;;
4089;SDS011;2059;48.538;12.146;2022-12-18T22:08:27;33.73;;;19.23;;
4089;SDS011;2059;48.538;12.146;2022-12-18T22:13:29;30.90;;;18.97;;
4089;SDS011;2059;48.538;12.146;2022-12-18T22:18:31;33.90;;;18.70;;
4089;SDS011;2059;48.538;12.146;2022-12-18T22:23:35;31.87;;;19.57;;
4089;SDS011;2059;48.538;12.146;2022-12-18T22:28:36;31.20;;;19.90;;
4089;SDS011;2059;48.538;12.146;2022-12-18T22:33:55;35.20;;;21.23;;
4089;SDS011;2059;48.538;12.146;2022-12-18T22:38:59;32.10;;;19.87;;
4089;SDS011;2059;48.538;12.146;2022-12-18T22:44:01;34.63;;;20.70;;
4089;SDS011;2059;48.538;12.146;2022-12-18T22:49:03;34.13;;;19.67;;
4089;SDS011;2059;48.538;12.146;2022-12-18T22:54:07;37.43;;;20.67;;
4089;SDS011;2059;48.538;12.146;2022-12-18T22:59:13;32.80;;;19.73;;
4089;SDS011;2059;48.538;12.146;2022-12-18T23:04:15;36.37;;;20.33;;
4089;SDS011;2059;48.538;12.146;2022-12-18T23:09:19;36.77;;;21.07;;
4089;SDS011;2059;48.538;12.146;2022-12-18T23:14:21;37.07;;;20.27;;
4089;SDS011;2059;48.538;12.146;2022-12-18T23:19:23;34.00;;;20.77;;
4089;SDS011;2059;48.538;12.146;2022-12-18T23:24:26;38.83;;;21.80;;
4089;SDS011;2059;48.538;12.146;2022-12-18T23:29:28;38.13;;;21.13;;
4089;SDS011;2059;48.538;12.146;2022-12-18T23:34:30;34.97;;;20.67;;
4089;SDS011;2059;48.538;12.146;2022-12-18T23:39:33;40.00;;;21.77;;
4089;SDS011;2059;48.538;12.146;2022-12-18T23:44:36;34.90;;;20.30;;
4089;SDS011;2059;48.538;12.146;2022-12-18T23:49:38;35.93;;;22.20;;
4089;SDS011;2059;48.538;12.146;2022-12-18T23:54:41;37.73;;;21.70;;
4089;SDS011;2059;48.538;12.146;2022-12-18T23:59:43;35.83;;;21.40;;
